createdAt,value
2023-03-30T00:01:12.149Z,0.06
2023-03-30T00:03:44.930Z,0.22
2023-03-30T00:06:21.077Z,0.06
2023-03-30T00:08:49.944Z,-0.06
2023-03-30T00:11:18.239Z,0.06
2023-03-30T00:13:47.067Z,0.15
2023-03-30T00:16:15.242Z,-0.07
2023-03-30T00:18:45.153Z,-0.24
2023-03-30T00:21:21.013Z,-0.11
2023-03-30T00:23:52.234Z,-0.12
2023-03-30T00:26:20.464Z,-0.28
2023-03-30T00:28:48.427Z,-0.32
2023-03-30T00:31:17.274Z,-0.13
2023-03-30T00:33:47.414Z,-0.20
2023-03-30T00:36:17.579Z,-0.40
2023-03-30T00:38:48.492Z,-0.40
2023-03-30T00:41:17.936Z,-0.13
2023-03-30T00:44:03.079Z,-0.27
2023-03-30T00:46:32.086Z,-0.47
2023-03-30T00:49:09.626Z,-0.44
2023-03-30T00:51:43.345Z,-0.18
2023-03-30T00:55:25.054Z,-0.57
2023-03-30T00:57:53.419Z,-0.45
2023-03-30T01:00:23.936Z,-0.19
2023-03-30T01:02:59.030Z,-0.22
2023-03-30T01:05:28.440Z,-0.42
2023-03-30T01:07:58.554Z,-0.43
2023-03-30T01:10:47.023Z,-0.16
2023-03-30T01:13:15.343Z,-0.29
2023-03-30T01:16:01.885Z,-0.46
2023-03-30T01:18:35.948Z,-0.36
2023-03-30T01:21:10.174Z,-0.20
2023-03-30T01:23:58.981Z,-0.37
2023-03-30T01:26:54.277Z,-0.55
2023-03-30T01:29:40.433Z,-0.34
2023-03-30T01:32:33.614Z,-0.37
2023-03-30T01:35:23.290Z,-0.54
2023-03-30T01:38:04.440Z,-0.50
2023-03-30T01:40:48.894Z,-0.27
2023-03-30T01:43:35.543Z,-0.44
2023-03-30T01:46:15.054Z,-0.57
2023-03-30T01:49:10.871Z,-0.40
2023-03-30T01:51:44.051Z,-0.23
2023-03-30T01:54:21.465Z,-0.45
2023-03-30T01:57:00.185Z,-0.60
2023-03-30T01:59:41.950Z,-0.43
2023-03-30T02:02:11.560Z,-0.37
2023-03-30T02:04:42.007Z,-0.59
2023-03-30T02:07:12.785Z,-0.70
2023-03-30T02:09:41.760Z,-0.51
2023-03-30T02:12:10.435Z,-0.49
2023-03-30T02:14:42.123Z,-0.65
2023-03-30T02:17:13.764Z,-0.70
2023-03-30T02:19:42.419Z,-0.46
2023-03-30T02:22:18.803Z,-0.53
2023-03-30T02:24:48.560Z,-0.67
2023-03-30T02:27:19.975Z,-0.65
2023-03-30T02:29:50.458Z,-0.41
2023-03-30T02:32:23.629Z,-0.52
2023-03-30T02:35:13.670Z,-0.64
2023-03-30T02:37:46.936Z,-0.66
2023-03-30T02:40:35.060Z,-0.43
2023-03-30T02:43:10.475Z,-0.59
2023-03-30T02:45:44.613Z,-0.72
2023-03-30T02:48:18.384Z,-0.75
2023-03-30T02:50:47.243Z,-0.57
2023-03-30T02:54:01.583Z,-0.68
2023-03-30T02:57:31.317Z,-0.80
2023-03-30T03:00:22.316Z,-0.53
2023-03-30T03:02:54.305Z,-0.66
2023-03-30T03:05:26.516Z,-0.82
2023-03-30T03:08:06.560Z,-0.84
2023-03-30T03:10:37.055Z,-0.61
2023-03-30T03:13:09.060Z,-0.71
2023-03-30T03:15:38.901Z,-0.85
2023-03-30T03:18:10.685Z,-0.88
2023-03-30T03:20:41.263Z,-0.63
2023-03-30T03:23:10.863Z,-0.76
2023-03-30T03:25:50.924Z,-0.96
2023-03-30T03:28:21.511Z,-1.01
2023-03-30T03:30:53.367Z,-0.80
2023-03-30T03:33:27.817Z,-0.81
2023-03-30T03:36:01.187Z,-0.93
2023-03-30T03:38:31.102Z,-1.00
2023-03-30T03:41:00.666Z,-0.79
2023-03-30T03:43:28.935Z,-0.72
2023-03-30T03:45:57.589Z,-0.86
2023-03-30T03:48:26.100Z,-0.96
2023-03-30T03:50:56.167Z,-0.90
2023-03-30T03:53:25.582Z,-0.76
2023-03-30T03:55:57.403Z,-0.91
2023-03-30T03:58:27.935Z,-0.99
2023-03-30T04:01:00.270Z,-0.99
2023-03-30T04:03:34.850Z,-0.74
2023-03-30T04:06:04.572Z,-0.82
2023-03-30T04:08:36.591Z,-0.91
2023-03-30T04:11:43.879Z,-0.81
2023-03-30T04:14:31.582Z,-0.53
2023-03-30T04:17:15.057Z,-0.69
2023-03-30T04:20:12.678Z,-0.77
2023-03-30T04:23:16.499Z,-0.58
2023-03-30T04:26:17.727Z,-0.35
2023-03-30T04:29:23.435Z,-0.42
2023-03-30T04:32:20.846Z,0.03
2023-03-30T04:35:08.988Z,0.42
2023-03-30T04:38:01.254Z,0.72
2023-03-30T04:41:06.645Z,0.81
2023-03-30T04:43:51.026Z,0.62
2023-03-30T04:46:21.921Z,0.46
2023-03-30T04:49:10.717Z,0.35
2023-03-30T04:51:56.659Z,0.38
2023-03-30T04:55:02.298Z,0.87
2023-03-30T04:57:49.060Z,1.19
2023-03-30T05:00:52.239Z,1.50
2023-03-30T05:03:45.736Z,1.27
2023-03-30T05:06:49.848Z,1.07
2023-03-30T05:09:24.180Z,0.87
2023-03-30T05:12:05.097Z,0.75
2023-03-30T05:14:49.325Z,0.66
2023-03-30T05:17:43.385Z,0.48
2023-03-30T05:20:18.372Z,0.71
2023-03-30T05:23:06.976Z,0.68
2023-03-30T05:25:55.402Z,0.62
2023-03-30T05:29:02.349Z,0.71
2023-03-30T05:32:03.447Z,0.64
2023-03-30T05:34:41.279Z,0.57
2023-03-30T05:37:50.317Z,0.86
2023-03-30T05:40:54.169Z,1.00
2023-03-30T05:43:29.676Z,0.90
2023-03-30T05:46:21.670Z,1.05
2023-03-30T05:48:50.313Z,1.21
2023-03-30T05:51:25.183Z,1.26
2023-03-30T05:54:19.501Z,1.21
2023-03-30T05:57:00.119Z,1.17
2023-03-30T05:59:40.395Z,1.26
2023-03-30T06:02:39.181Z,1.38
2023-03-30T06:05:12.181Z,1.37
2023-03-30T06:07:43.529Z,1.37
2023-03-30T06:10:14.683Z,1.29
2023-03-30T06:12:43.769Z,1.38
2023-03-30T06:15:22.411Z,1.54
2023-03-30T06:18:04.094Z,1.62
2023-03-30T06:20:33.956Z,1.66
2023-03-30T06:23:02.753Z,1.71
2023-03-30T06:25:32.254Z,1.90
2023-03-30T06:28:00.961Z,2.05
2023-03-30T06:30:29.444Z,2.21
2023-03-30T06:33:01.548Z,2.25
2023-03-30T06:35:50.236Z,2.14
2023-03-30T06:38:22.061Z,2.10
2023-03-30T06:40:52.565Z,2.11
2023-03-30T06:43:24.612Z,2.25
2023-03-30T06:46:13.890Z,2.35
2023-03-30T06:48:45.726Z,2.49
2023-03-30T06:51:35.440Z,2.70
2023-03-30T06:54:04.260Z,2.74
2023-03-30T06:56:32.733Z,2.69
2023-03-30T06:59:10.013Z,2.77
2023-03-30T07:02:01.341Z,2.91
2023-03-30T07:05:08.101Z,2.91
2023-03-30T07:07:52.636Z,2.97
2023-03-30T07:10:21.813Z,3.05
2023-03-30T07:12:49.934Z,3.11
2023-03-30T07:15:18.577Z,3.06
2023-03-30T07:17:47.118Z,3.05
2023-03-30T07:20:19.451Z,3.09
2023-03-30T07:23:11.529Z,3.25
2023-03-30T07:25:41.309Z,3.25
2023-03-30T07:28:23.819Z,3.27
2023-03-30T07:30:53.549Z,3.25
2023-03-30T07:33:23.440Z,3.16
2023-03-30T07:35:53.129Z,3.16
2023-03-30T07:38:24.116Z,3.38
2023-03-30T07:40:54.197Z,3.63
2023-03-30T07:43:27.170Z,3.78
2023-03-30T07:45:57.818Z,3.81
2023-03-30T07:48:32.706Z,3.98
2023-03-30T07:51:19.799Z,4.26
2023-03-30T07:54:05.082Z,4.30
2023-03-30T07:56:45.075Z,4.13
2023-03-30T07:59:14.213Z,4.05
2023-03-30T08:01:52.188Z,4.06
2023-03-30T08:04:44.709Z,4.13
2023-03-30T08:07:14.524Z,4.22
2023-03-30T08:09:45.957Z,4.25
2023-03-30T08:12:14.773Z,4.44
2023-03-30T08:14:42.845Z,4.48
2023-03-30T08:17:10.834Z,4.49
2023-03-30T08:19:41.269Z,4.60
2023-03-30T08:22:10.672Z,4.56
2023-03-30T08:24:40.064Z,4.49
2023-03-30T08:27:08.784Z,4.50
2023-03-30T08:29:36.959Z,4.44
2023-03-30T08:32:04.971Z,4.45
2023-03-30T08:34:35.397Z,4.63
2023-03-30T08:37:05.782Z,4.69
2023-03-30T08:39:38.767Z,4.64
2023-03-30T08:42:06.908Z,4.63
2023-03-30T08:44:39.880Z,4.65
2023-03-30T08:47:20.568Z,4.67
2023-03-30T08:50:02.980Z,4.68
2023-03-30T08:52:34.114Z,4.68
2023-03-30T08:55:04.500Z,4.65
2023-03-30T08:58:06.672Z,4.68
2023-03-30T09:01:14.505Z,4.73
2023-03-30T09:03:48.372Z,4.83
2023-03-30T09:06:24.328Z,4.90
2023-03-30T09:08:52.647Z,4.90
2023-03-30T09:11:30.417Z,4.95
2023-03-30T09:14:03.039Z,5.08
2023-03-30T09:16:35.533Z,5.13
2023-03-30T09:19:10.120Z,5.21
2023-03-30T09:21:39.057Z,5.27
2023-03-30T09:24:13.372Z,5.40
2023-03-30T09:26:50.456Z,5.58
2023-03-30T09:29:22.314Z,5.77
2023-03-30T09:32:15.264Z,5.78
2023-03-30T09:34:50.486Z,5.69
2023-03-30T09:37:18.863Z,5.74
2023-03-30T09:39:47.942Z,5.88
2023-03-30T09:42:49.002Z,6.01
2023-03-30T09:45:21.634Z,6.02
2023-03-30T09:47:50.880Z,5.86
2023-03-30T09:50:23.331Z,5.74
2023-03-30T09:53:07.316Z,5.80
2023-03-30T09:55:35.765Z,6.00
2023-03-30T09:58:11.645Z,5.97
2023-03-30T10:00:40.038Z,5.88
2023-03-30T10:03:22.962Z,5.95
2023-03-30T10:06:13.375Z,6.11
2023-03-30T10:08:49.450Z,6.11
2023-03-30T10:11:21.747Z,6.03
2023-03-30T10:13:50.332Z,5.96
2023-03-30T10:16:27.171Z,5.94
2023-03-30T10:19:01.925Z,6.06
2023-03-30T10:21:48.420Z,6.20
2023-03-30T10:24:24.329Z,6.40
2023-03-30T10:26:58.820Z,6.49
2023-03-30T10:29:28.482Z,6.61
2023-03-30T10:32:09.197Z,6.53
2023-03-30T10:34:41.272Z,6.45
2023-03-30T10:37:15.686Z,6.31
2023-03-30T10:39:44.169Z,6.35
2023-03-30T10:42:16.072Z,6.43
2023-03-30T10:45:00.892Z,6.49
2023-03-30T10:47:38.651Z,6.68
2023-03-30T10:50:27.015Z,6.92
2023-03-30T10:53:33.863Z,7.08
2023-03-30T10:56:38.371Z,7.06
2023-03-30T10:59:22.312Z,7.07
2023-03-30T11:02:12.014Z,7.11
2023-03-30T11:04:59.937Z,7.09
2023-03-30T11:07:53.872Z,6.99
2023-03-30T11:10:31.573Z,7.00
2023-03-30T11:13:02.783Z,6.98
2023-03-30T11:15:42.977Z,7.02
2023-03-30T11:18:18.080Z,7.11
2023-03-30T11:21:33.760Z,7.32
2023-03-30T11:24:09.883Z,7.55
2023-03-30T11:26:40.908Z,7.60
2023-03-30T11:29:30.240Z,7.66
2023-03-30T11:32:33.791Z,7.79
2023-03-30T11:35:11.572Z,7.73
2023-03-30T11:37:53.184Z,7.63
2023-03-30T11:40:32.530Z,7.62
2023-03-30T11:43:01.274Z,7.93
2023-03-30T11:46:12.497Z,8.13
2023-03-30T11:48:59.049Z,8.14
2023-03-30T11:51:55.121Z,8.25
2023-03-30T11:55:03.669Z,8.41
2023-03-30T11:57:37.276Z,8.51
2023-03-30T12:00:11.342Z,8.46
2023-03-30T12:02:46.777Z,8.51
2023-03-30T12:05:32.341Z,8.53
2023-03-30T12:08:14.690Z,8.64
2023-03-30T12:10:43.484Z,8.67
2023-03-30T12:13:15.565Z,8.74
2023-03-30T12:15:55.768Z,8.87
2023-03-30T12:18:29.726Z,9.09
2023-03-30T12:21:17.830Z,9.11
2023-03-30T12:23:49.994Z,9.16
2023-03-30T12:26:25.456Z,9.18
2023-03-30T12:29:04.969Z,9.32
2023-03-30T12:32:03.575Z,9.33
2023-03-30T12:34:34.651Z,9.32
2023-03-30T12:37:24.318Z,9.55
2023-03-30T12:39:59.258Z,9.69
2023-03-30T12:42:34.765Z,9.64
2023-03-30T12:45:15.636Z,9.68
2023-03-30T12:48:10.152Z,9.57
2023-03-30T12:50:55.685Z,9.67
2023-03-30T12:53:36.376Z,9.96
2023-03-30T12:56:05.097Z,10.26
2023-03-30T12:59:08.392Z,10.20
2023-03-30T13:01:56.144Z,10.08
2023-03-30T13:04:25.643Z,10.01
2023-03-30T13:06:58.438Z,9.94
2023-03-30T13:09:30.566Z,10.00
2023-03-30T13:13:24.875Z,9.83
2023-03-30T13:15:57.949Z,9.97
2023-03-30T13:18:29.083Z,9.96
2023-03-30T13:21:16.084Z,9.99
2023-03-30T13:23:45.466Z,10.19
2023-03-30T13:26:35.171Z,10.36
2023-03-30T13:29:04.664Z,10.41
2023-03-30T13:32:04.806Z,10.56
2023-03-30T13:35:03.028Z,10.48
2023-03-30T13:38:13.263Z,10.63
2023-03-30T13:40:57.797Z,10.56
2023-03-30T13:43:51.253Z,10.61
2023-03-30T13:46:19.409Z,10.68
2023-03-30T13:49:03.850Z,10.60
2023-03-30T13:51:31.955Z,10.81
2023-03-30T13:54:05.474Z,11.06
2023-03-30T13:56:37.985Z,11.36
2023-03-30T13:59:15.630Z,11.40
2023-03-30T14:01:52.964Z,11.31
2023-03-30T14:04:20.971Z,11.24
2023-03-30T14:06:51.425Z,11.34
2023-03-30T14:09:22.721Z,11.23
2023-03-30T14:11:57.301Z,11.05
2023-03-30T14:14:37.054Z,11.15
2023-03-30T14:17:18.882Z,11.09
2023-03-30T14:20:21.105Z,11.05
2023-03-30T14:22:50.407Z,11.32
2023-03-30T14:25:23.272Z,11.46
2023-03-30T14:28:11.407Z,11.25
2023-03-30T14:30:51.544Z,11.09
2023-03-30T14:33:19.962Z,11.05
2023-03-30T14:35:50.119Z,11.14
2023-03-30T14:38:22.771Z,11.14
2023-03-30T14:40:51.658Z,11.36
2023-03-30T14:43:28.974Z,11.67
2023-03-30T14:46:00.169Z,12.01
2023-03-30T14:48:49.249Z,12.03
2023-03-30T14:51:21.447Z,12.14
2023-03-30T14:53:51.278Z,12.21
2023-03-30T14:56:22.785Z,12.25
2023-03-30T14:58:52.118Z,12.21
2023-03-30T15:01:24.958Z,12.18
2023-03-30T15:03:54.109Z,12.24
2023-03-30T15:06:24.718Z,12.20
2023-03-30T15:08:53.460Z,12.10
2023-03-30T15:11:26.241Z,11.99
2023-03-30T15:13:57.960Z,12.09
2023-03-30T15:16:28.440Z,12.19
2023-03-30T15:19:21.589Z,12.40
2023-03-30T15:21:51.426Z,12.31
2023-03-30T15:24:23.517Z,12.10
2023-03-30T15:26:52.260Z,11.94
2023-03-30T15:29:20.690Z,11.79
2023-03-30T15:32:09.250Z,11.78
2023-03-30T15:34:37.566Z,11.53
2023-03-30T15:51:09.871Z,9.97
2023-03-30T15:58:05.450Z,9.84
2023-03-30T16:00:34.465Z,9.83
2023-03-30T16:03:04.198Z,9.83
2023-03-30T16:05:36.882Z,9.81
2023-03-30T16:08:05.720Z,9.70
2023-03-30T16:10:38.404Z,9.47
2023-03-30T16:13:11.680Z,9.20
2023-03-30T16:15:39.794Z,8.95
2023-03-30T16:18:12.843Z,8.71
2023-03-30T16:20:41.577Z,8.45
2023-03-30T16:23:09.633Z,8.22
2023-03-30T16:28:17.291Z,7.88
2023-03-30T16:30:53.073Z,7.77
2023-03-30T16:33:22.875Z,7.62
2023-03-30T16:35:53.394Z,7.47
2023-03-30T16:38:21.855Z,7.32
2023-03-30T16:40:55.193Z,7.23
2023-03-30T16:43:25.350Z,7.18
2023-03-30T16:45:53.998Z,7.11
2023-03-30T16:48:26.974Z,7.04
2023-03-30T16:50:57.957Z,7.00
2023-03-30T16:53:28.438Z,6.97
2023-03-30T16:55:56.505Z,6.91
2023-03-30T16:58:26.359Z,6.85
2023-03-30T17:01:03.741Z,6.78
2023-03-30T17:03:33.963Z,6.67
2023-03-30T17:06:09.265Z,6.56
2023-03-30T17:08:37.641Z,6.49
2023-03-30T17:11:08.039Z,6.43
2023-03-30T17:13:37.158Z,6.35
2023-03-30T17:16:27.539Z,6.27
2023-03-30T17:19:01.522Z,6.18
2023-03-30T17:21:29.889Z,6.08
2023-03-30T17:23:57.958Z,5.97
2023-03-30T17:26:28.682Z,5.84
2023-03-30T17:28:57.627Z,5.70
2023-03-30T17:31:27.973Z,5.64
2023-03-30T17:33:57.690Z,5.62
2023-03-30T17:36:27.005Z,5.61
2023-03-30T17:39:17.931Z,5.66
2023-03-30T17:41:46.271Z,5.66
2023-03-30T17:44:18.005Z,5.63
2023-03-30T17:46:46.471Z,5.60
2023-03-30T17:49:16.464Z,5.56
2023-03-30T17:51:45.919Z,5.51
2023-03-30T17:54:14.835Z,5.43
2023-03-30T17:56:43.468Z,5.35
2023-03-30T17:59:11.814Z,5.30
2023-03-30T18:01:40.412Z,5.26
2023-03-30T18:04:09.216Z,5.21
2023-03-30T18:06:37.800Z,5.19
2023-03-30T18:09:16.481Z,5.20
2023-03-30T18:11:45.354Z,5.22
2023-03-30T18:14:13.981Z,5.24
2023-03-30T18:16:43.685Z,5.25
2023-03-30T18:19:12.242Z,5.24
2023-03-30T18:21:40.910Z,5.22
2023-03-30T18:24:08.906Z,5.20
2023-03-30T18:26:39.822Z,5.21
2023-03-30T18:29:20.385Z,5.21
2023-03-30T18:31:49.434Z,5.17
2023-03-30T18:34:19.758Z,5.12
2023-03-30T18:36:48.408Z,5.08
2023-03-30T18:39:20.198Z,5.10
2023-03-30T18:41:49.362Z,5.13
2023-03-30T18:44:17.965Z,5.13
2023-03-30T18:46:50.254Z,5.16
2023-03-30T18:49:20.813Z,5.22
2023-03-30T18:51:48.786Z,5.26
2023-03-30T18:54:17.166Z,5.30
2023-03-30T18:56:46.136Z,5.30
2023-03-30T18:59:19.718Z,5.31
2023-03-30T19:01:51.365Z,5.31
2023-03-30T19:04:19.876Z,5.36
2023-03-30T19:06:48.140Z,5.40
2023-03-30T19:09:16.529Z,5.46
2023-03-30T19:11:44.539Z,5.51
2023-03-30T19:14:12.595Z,5.56
2023-03-30T19:16:44.195Z,5.62
2023-03-30T19:19:15.337Z,5.66
2023-03-30T19:21:46.586Z,5.69
2023-03-30T19:24:14.692Z,5.70
2023-03-30T19:26:42.840Z,5.70
2023-03-30T19:29:13.361Z,5.70
2023-03-30T19:31:42.526Z,5.71
2023-03-30T19:34:10.865Z,5.70
2023-03-30T19:36:39.221Z,5.71
2023-03-30T19:39:08.592Z,5.75
2023-03-30T19:41:38.157Z,5.82
2023-03-30T19:44:06.483Z,5.90
2023-03-30T19:46:35.161Z,5.96
2023-03-30T19:49:03.689Z,6.00
2023-03-30T19:51:33.706Z,6.02
2023-03-30T19:54:02.185Z,6.03
2023-03-30T19:56:30.779Z,6.06
2023-03-30T19:58:59.180Z,6.09
2023-03-30T20:01:27.758Z,6.12
2023-03-30T20:03:59.713Z,6.19
2023-03-30T20:06:28.136Z,6.23
2023-03-30T20:08:56.581Z,6.23
2023-03-30T20:11:25.265Z,6.23
2023-03-30T20:13:53.939Z,6.24
2023-03-30T20:16:22.364Z,6.28
2023-03-30T20:18:53.955Z,6.30
2023-03-30T20:21:24.044Z,6.30
2023-03-30T20:23:52.107Z,6.32
2023-03-30T20:26:21.388Z,6.33
2023-03-30T20:28:49.860Z,6.34
2023-03-30T20:31:18.168Z,6.36
2023-03-30T20:33:46.308Z,6.38
2023-03-30T20:36:14.204Z,6.37
2023-03-30T20:38:45.905Z,6.37
2023-03-30T20:41:14.435Z,6.38
2023-03-30T20:43:55.777Z,6.39
2023-03-30T20:46:26.550Z,6.41
2023-03-30T20:48:54.710Z,6.40
2023-03-30T20:51:22.946Z,6.40
2023-03-30T20:53:51.022Z,6.45
2023-03-30T20:56:20.238Z,6.51
2023-03-30T20:58:48.132Z,6.53
2023-03-30T21:01:18.511Z,6.54
2023-03-30T21:03:50.210Z,6.54
2023-03-30T21:06:19.841Z,6.55
2023-03-30T21:08:53.800Z,6.57
2023-03-30T21:11:22.817Z,6.59
2023-03-30T21:13:55.501Z,6.63
2023-03-30T21:16:24.106Z,6.65
2023-03-30T21:18:52.117Z,6.65
2023-03-30T21:21:22.457Z,6.63
2023-03-30T21:23:50.679Z,6.60
2023-03-30T21:26:19.659Z,6.55
2023-03-30T21:28:47.758Z,6.50
2023-03-30T21:31:17.388Z,6.44
2023-03-30T21:33:46.747Z,6.41
2023-03-30T21:36:14.720Z,6.42
2023-03-30T21:38:43.348Z,6.46
2023-03-30T21:41:16.000Z,6.47
2023-03-30T21:43:47.403Z,6.47
2023-03-30T21:46:18.258Z,6.48
2023-03-30T21:48:51.267Z,6.50
2023-03-30T21:51:24.126Z,6.53
2023-03-30T21:53:55.735Z,6.56
2023-03-30T21:56:26.001Z,6.58
2023-03-30T21:58:54.041Z,6.58
2023-03-30T22:01:26.155Z,6.58
2023-03-30T22:03:54.927Z,6.59
2023-03-30T22:06:23.645Z,6.61
2023-03-30T22:08:53.519Z,6.62
2023-03-30T22:11:23.502Z,6.64
2023-03-30T22:13:52.434Z,6.61
2023-03-30T22:16:23.014Z,6.60
2023-03-30T22:18:56.525Z,6.61
2023-03-30T22:21:26.086Z,6.64
2023-03-30T22:23:54.959Z,6.68
2023-03-30T22:26:23.702Z,6.72
2023-03-30T22:28:55.188Z,6.75
2023-03-30T22:31:23.675Z,6.77
2023-03-30T22:33:52.977Z,6.80
2023-03-30T22:36:23.193Z,6.79
2023-03-30T22:38:52.296Z,6.75
2023-03-30T22:41:24.483Z,6.77
2023-03-30T22:43:53.583Z,6.79
2023-03-30T22:46:23.032Z,6.79
2023-03-30T22:48:52.764Z,6.77
2023-03-30T22:51:28.159Z,6.75
2023-03-30T22:54:00.748Z,6.73
2023-03-30T22:56:33.106Z,6.69
2023-03-30T22:59:02.624Z,6.68
2023-03-30T23:01:32.405Z,6.69
2023-03-30T23:04:05.103Z,6.69
2023-03-30T23:06:36.845Z,6.67
2023-03-30T23:09:04.881Z,6.64
2023-03-30T23:11:34.503Z,6.59
2023-03-30T23:14:05.347Z,6.54
2023-03-30T23:16:36.136Z,6.49
2023-03-30T23:19:07.293Z,6.43
2023-03-30T23:21:36.116Z,6.38
2023-03-30T23:24:06.446Z,6.34
2023-03-30T23:26:37.125Z,6.29
2023-03-30T23:29:07.384Z,6.27
2023-03-30T23:31:36.416Z,6.26
2023-03-30T23:34:05.288Z,6.28
2023-03-30T23:36:34.971Z,6.30
2023-03-30T23:39:02.979Z,6.32
2023-03-30T23:41:31.202Z,6.32
2023-03-30T23:43:59.797Z,6.35
2023-03-30T23:46:29.103Z,6.37
2023-03-30T23:48:57.498Z,6.38
2023-03-30T23:51:25.925Z,6.36
2023-03-30T23:53:56.679Z,6.36
2023-03-30T23:56:27.858Z,6.36
2023-03-30T23:58:56.916Z,6.36
